Time;durP1;ratioP1;P1;durP2;ratioP2;P2;SDS_P1;SDS_P2;PMS_P1;PMS_P2;Temp;Humidity;BMP_temperature;BMP_pressure;BME280_temperature;BME280_humidity;BME280_pressure;Samples;Min_cycle;Max_cycle;Signal;HPM_P1;HPM_P2
2022/11/01 00:01:09;;;;;;;8.35;6.35;;;19.70;99.90;;;;;;4136437;28;20221;-74
2022/11/01 00:03:11;;;;;;;8.50;6.20;;;19.60;99.90;;;;;;4141182;28;20236;-74
2022/11/01 00:05:13;;;;;;;7.70;5.85;;;19.60;99.90;;;;;;4145126;28;20374;-74
2022/11/01 00:07:15;;;;;;;10.00;6.10;;;19.60;99.90;;;;;;4143951;28;20650;-74
2022/11/01 00:09:18;;;;;;;8.02;5.72;;;19.60;99.90;;;;;;4143813;28;20216;-74
2022/11/01 00:11:22;;;;;;;12.65;6.93;;;19.60;99.90;;;;;;4145274;28;20635;-74
2022/11/01 00:13:25;;;;;;;9.73;6.05;;;19.60;99.90;;;;;;4155899;28;20224;-74
2022/11/01 00:15:28;;;;;;;9.35;6.40;;;19.60;99.90;;;;;;4145211;28;20827;-74
2022/11/01 00:17:30;;;;;;;6.22;5.63;;;19.60;99.90;;;;;;4144855;28;20245;-74
2022/11/01 00:19:32;;;;;;;10.45;6.07;;;19.70;99.90;;;;;;4143765;28;20267;-74
2022/11/01 00:21:35;;;;;;;8.38;5.95;;;19.60;99.90;;;;;;4154134;28;20252;-75
2022/11/01 00:23:38;;;;;;;8.38;6.15;;;19.70;99.90;;;;;;4145839;28;20299;-75
2022/11/01 00:25:40;;;;;;;10.35;6.00;;;19.70;99.90;;;;;;4140334;28;20619;-75
2022/11/01 00:27:42;;;;;;;8.00;5.47;;;19.60;99.90;;;;;;4145829;28;20352;-74
2022/11/01 00:29:46;;;;;;;7.20;5.97;;;19.60;99.90;;;;;;4133577;28;20217;-75
2022/11/01 00:31:49;;;;;;;9.55;6.32;;;19.60;99.90;;;;;;4143438;28;20213;-74
2022/11/01 00:33:51;;;;;;;8.32;6.10;;;19.60;99.90;;;;;;4145874;28;20271;-74
2022/11/01 00:35:53;;;;;;;8.40;5.93;;;19.60;99.90;;;;;;4144524;28;20279;-74
2022/11/01 00:37:56;;;;;;;9.48;6.43;;;19.70;99.90;;;;;;4144941;28;20574;-75
2022/11/01 00:39:58;;;;;;;9.30;6.22;;;19.60;99.90;;;;;;4145273;28;20225;-74
2022/11/01 00:42:00;;;;;;;7.82;5.88;;;19.60;99.90;;;;;;4144875;28;20260;-74
2022/11/01 00:44:03;;;;;;;8.18;5.80;;;19.60;99.90;;;;;;4141862;28;20249;-74
2022/11/01 00:46:06;;;;;;;8.35;6.00;;;19.60;99.90;;;;;;4144396;28;20252;-74
2022/11/01 00:48:09;;;;;;;9.38;6.43;;;19.60;99.90;;;;;;4147952;28;20217;-75
2022/11/01 00:50:11;;;;;;;7.50;5.85;;;19.60;99.90;;;;;;4145618;28;20254;-74
2022/11/01 00:52:13;;;;;;;8.18;5.75;;;19.60;99.90;;;;;;4153328;28;20633;-74
2022/11/01 00:54:15;;;;;;;7.65;6.50;;;19.60;99.90;;;;;;4150363;28;20225;-74
2022/11/01 00:56:18;;;;;;;8.38;5.88;;;19.60;99.90;;;;;;4145669;28;20282;-74
2022/11/01 00:58:20;;;;;;;7.93;5.65;;;19.70;99.90;;;;;;4145434;28;20271;-74
2022/11/01 01:00:22;;;;;;;8.27;6.20;;;19.60;99.90;;;;;;4145959;28;20608;-74
2022/11/01 01:02:26;;;;;;;7.10;5.63;;;19.60;99.90;;;;;;4149765;28;20244;-74
2022/11/01 01:04:29;;;;;;;7.38;5.72;;;19.60;99.90;;;;;;4145945;28;20233;-74
2022/11/01 01:06:31;;;;;;;8.35;5.85;;;19.60;99.90;;;;;;4147844;28;20287;-74
2022/11/01 01:08:33;;;;;;;8.68;6.43;;;19.60;99.90;;;;;;4139699;28;20256;-74
2022/11/01 01:10:36;;;;;;;8.98;5.97;;;19.60;99.90;;;;;;4149834;28;20229;-74
2022/11/01 01:12:38;;;;;;;9.82;6.00;;;19.60;99.90;;;;;;4145354;28;20225;-74
2022/11/01 01:14:40;;;;;;;10.02;6.82;;;19.60;99.90;;;;;;4147490;28;20256;-74
2022/11/01 01:16:43;;;;;;;7.85;5.30;;;19.60;99.90;;;;;;4149044;28;20213;-74
2022/11/01 01:18:46;;;;;;;8.48;6.22;;;19.70;99.90;;;;;;4149248;28;20217;-74
2022/11/01 01:20:49;;;;;;;8.48;6.43;;;19.70;99.90;;;;;;4147541;28;20266;-74
2022/11/01 01:22:51;;;;;;;8.18;5.88;;;19.60;99.90;;;;;;4154359;28;20264;-74
2022/11/01 01:24:53;;;;;;;7.03;5.53;;;19.60;99.90;;;;;;4151053;28;20224;-74
2022/11/01 01:26:55;;;;;;;8.18;6.07;;;19.60;99.90;;;;;;4151602;28;20244;-74
2022/11/01 01:28:59;;;;;;;9.43;5.80;;;19.60;99.90;;;;;;4148731;28;20225;-73
2022/11/01 01:31:06;;;;;;;7.65;6.00;;;19.60;99.90;;;;;;4148937;28;20275;-74
2022/11/01 01:33:08;;;;;;;10.18;6.07;;;19.60;99.90;;;;;;4145113;28;20229;-74
2022/11/01 01:35:12;;;;;;;7.50;5.43;;;19.60;99.90;;;;;;4149028;28;20604;-74
2022/11/01 01:37:15;;;;;;;7.90;5.95;;;19.60;99.90;;;;;;4145813;28;20252;-74
2022/11/01 01:39:17;;;;;;;8.02;5.90;;;19.60;99.90;;;;;;4138066;28;20738;-74
2022/11/01 01:43:41;;;;;;;7.45;5.35;;;19.60;99.90;;;;;;4136340;28;20631;-74
2022/11/01 01:45:44;;;;;;;7.40;5.78;;;19.60;99.90;;;;;;4144109;28;20213;-74
2022/11/01 01:47:49;;;;;;;7.65;5.72;;;19.60;99.90;;;;;;4150212;28;20280;-74
2022/11/01 01:49:54;;;;;;;7.18;5.57;;;19.60;99.90;;;;;;4145703;28;20277;-74
2022/11/01 01:51:58;;;;;;;8.77;5.55;;;19.60;99.90;;;;;;4149818;28;20615;-74
2022/11/01 01:54:01;;;;;;;8.38;6.25;;;19.60;99.90;;;;;;4151066;28;20579;-74
2022/11/01 01:56:06;;;;;;;7.55;5.78;;;19.60;99.90;;;;;;4147815;28;20221;-74
2022/11/01 01:58:12;;;;;;;7.32;5.20;;;19.60;99.90;;;;;;4136599;28;20267;-73
2022/11/01 02:00:14;;;;;;;8.77;6.40;;;19.60;99.90;;;;;;4150813;28;20712;-74
2022/11/01 02:02:18;;;;;;;7.18;5.75;;;19.60;99.90;;;;;;4141760;28;20229;-74
2022/11/01 02:04:26;;;;;;;8.10;6.38;;;19.60;99.90;;;;;;4145675;28;20221;-74
2022/11/01 02:06:28;;;;;;;8.70;5.80;;;19.60;99.90;;;;;;4147735;28;20278;-74
2022/11/01 02:08:32;;;;;;;7.97;5.85;;;19.60;99.90;;;;;;4144751;28;20978;-74
2022/11/01 02:10:35;;;;;;;8.43;5.50;;;19.60;99.90;;;;;;4147138;28;20678;-74
2022/11/01 02:12:37;;;;;;;6.78;5.65;;;19.60;99.90;;;;;;4141930;28;20217;-73
2022/11/01 02:14:42;;;;;;;6.45;5.28;;;19.70;99.90;;;;;;4146304;28;20272;-74
2022/11/01 02:16:51;;;;;;;8.38;5.82;;;19.60;99.90;;;;;;4145270;28;20290;-74
2022/11/01 02:19:05;;;;;;;7.70;5.68;;;19.60;99.90;;;;;;4146924;28;20312;-74
2022/11/01 02:21:40;;;;;;;7.50;5.53;;;19.60;99.90;;;;;;4142393;28;20221;-74
2022/11/01 02:24:08;;;;;;;7.78;5.53;;;19.60;99.90;;;;;;4145742;28;20224;-74
2022/11/01 02:26:54;;;;;;;6.82;5.13;;;19.60;99.90;;;;;;4146194;28;20345;-74
2022/11/01 02:29:11;;;;;;;7.22;5.53;;;19.60;99.90;;;;;;4142384;28;20213;-74
2022/11/01 02:31:35;;;;;;;6.55;4.97;;;19.60;99.90;;;;;;4146344;28;20225;-74
2022/11/01 02:33:43;;;;;;;7.80;5.30;;;19.60;99.90;;;;;;4140358;28;20217;-74
2022/11/01 02:35:55;;;;;;;6.78;5.47;;;19.60;99.90;;;;;;4142891;28;20277;-74
2022/11/01 02:38:05;;;;;;;8.52;5.40;;;19.60;99.90;;;;;;4146163;28;20651;-74
2022/11/01 02:40:13;;;;;;;7.40;5.47;;;19.60;99.90;;;;;;4145823;28;20220;-74
2022/11/01 02:42:21;;;;;;;6.88;4.88;;;19.60;99.90;;;;;;4146318;28;20229;-74
2022/11/01 02:44:26;;;;;;;7.63;5.32;;;19.60;99.90;;;;;;4136684;28;20216;-74
2022/11/01 02:48:59;;;;;;;7.05;5.20;;;19.60;99.90;;;;;;4144068;28;20201;-74
2022/11/01 02:51:01;;;;;;;7.30;4.95;;;19.60;99.90;;;;;;4147503;28;20603;-74
2022/11/01 02:53:04;;;;;;;6.40;5.22;;;19.50;99.90;;;;;;4142875;28;20225;-74
2022/11/01 02:55:28;;;;;;;7.68;4.82;;;19.60;99.90;;;;;;4140945;28;20256;-75
2022/11/01 02:57:35;;;;;;;6.93;4.72;;;19.50;99.90;;;;;;4145970;28;20319;-75
2022/11/01 02:59:44;;;;;;;6.45;5.18;;;19.50;99.90;;;;;;4143521;28;20320;-75
2022/11/01 03:01:52;;;;;;;8.75;5.35;;;19.50;99.90;;;;;;4145655;28;20314;-75
2022/11/01 03:03:58;;;;;;;7.82;4.90;;;19.50;99.90;;;;;;4143991;28;20731;-75
2022/11/01 03:06:07;;;;;;;8.40;5.22;;;19.50;99.90;;;;;;4145280;28;20291;-74
2022/11/01 03:08:12;;;;;;;7.80;5.18;;;19.50;99.90;;;;;;4145142;28;20244;-74
2022/11/01 03:10:15;;;;;;;5.57;4.60;;;19.50;99.90;;;;;;4141865;28;20209;-75
2022/11/01 03:12:24;;;;;;;7.43;5.35;;;19.50;99.90;;;;;;4144071;28;20567;-74
2022/11/01 03:14:32;;;;;;;7.30;4.72;;;19.50;99.90;;;;;;4146517;28;20225;-74
2022/11/01 03:16:40;;;;;;;5.72;5.03;;;19.50;99.90;;;;;;4145128;28;20216;-75
2022/11/01 03:18:54;;;;;;;6.35;4.90;;;19.40;99.90;;;;;;4147399;28;21710;-74
2022/11/01 03:21:14;;;;;;;7.57;5.28;;;19.40;99.90;;;;;;4145860;28;20761;-74
2022/11/01 03:23:19;;;;;;;5.90;4.80;;;19.40;99.90;;;;;;4136925;28;20217;-74
2022/11/01 03:25:39;;;;;;;6.15;4.97;;;19.50;99.90;;;;;;4144816;28;20221;-74
2022/11/01 03:27:44;;;;;;;5.60;4.50;;;19.50;99.90;;;;;;4144472;28;20240;-74
2022/11/01 03:29:55;;;;;;;7.50;4.70;;;19.50;99.90;;;;;;4145442;28;20267;-74
2022/11/01 03:31:59;;;;;;;6.32;4.75;;;19.40;99.90;;;;;;4146491;28;20232;-74
2022/11/01 03:34:05;;;;;;;6.50;4.72;;;19.40;99.90;;;;;;4146362;28;20303;-74
2022/11/01 03:36:12;;;;;;;6.57;5.13;;;19.40;99.90;;;;;;4145747;28;20264;-74
2022/11/01 03:38:18;;;;;;;5.47;4.68;;;19.40;99.90;;;;;;4145099;28;20310;-75
2022/11/01 03:40:24;;;;;;;5.75;4.45;;;19.50;99.90;;;;;;4145583;28;20747;-74
2022/11/01 03:42:26;;;;;;;6.03;4.47;;;19.40;99.90;;;;;;4147663;28;20238;-74
2022/11/01 03:44:33;;;;;;;5.70;4.30;;;19.40;99.90;;;;;;4144789;28;20225;-74
2022/11/01 03:46:35;;;;;;;5.88;4.55;;;19.40;99.90;;;;;;4145228;28;20275;-74
2022/11/01 03:48:39;;;;;;;5.30;4.65;;;19.40;99.90;;;;;;4144009;28;20240;-74
2022/11/01 03:50:48;;;;;;;5.22;4.47;;;19.40;99.90;;;;;;4145666;28;20260;-75
2022/11/01 03:52:51;;;;;;;6.22;4.45;;;19.40;99.90;;;;;;4145203;28;20274;-75
2022/11/01 03:54:54;;;;;;;8.15;5.30;;;19.40;99.90;;;;;;4146974;28;20219;-74
2022/11/01 03:56:56;;;;;;;5.57;4.50;;;19.40;99.90;;;;;;4144991;28;20224;-74
2022/11/01 03:58:58;;;;;;;8.00;5.10;;;19.40;99.90;;;;;;4144765;28;20225;-74
2022/11/01 04:01:01;;;;;;;6.35;4.53;;;19.40;99.90;;;;;;4141222;28;20213;-74
2022/11/01 04:03:03;;;;;;;6.18;4.60;;;19.40;99.90;;;;;;4145048;28;20307;-73
2022/11/01 04:05:07;;;;;;;5.25;4.63;;;19.40;99.90;;;;;;4145178;28;20616;-74
2022/11/01 04:07:09;;;;;;;7.88;4.60;;;19.40;99.90;;;;;;4144657;28;20977;-74
2022/11/01 04:09:12;;;;;;;6.00;4.47;;;19.40;99.90;;;;;;4145156;28;21172;-74
2022/11/01 04:11:15;;;;;;;5.65;4.18;;;19.40;99.90;;;;;;4145064;28;20225;-74
2022/11/01 04:13:17;;;;;;;7.03;4.50;;;19.40;99.90;;;;;;4145470;28;20229;-74
2022/11/01 04:22:20;;;;;;;5.25;4.40;;;19.40;99.90;;;;;;4144623;28;20209;-75
2022/11/01 04:24:23;;;;;;;6.88;4.28;;;19.30;99.90;;;;;;4144435;28;20221;-75
2022/11/01 04:26:26;;;;;;;4.88;3.88;;;19.30;99.90;;;;;;4145163;28;20279;-75
2022/11/01 04:28:28;;;;;;;5.70;4.45;;;19.40;99.90;;;;;;4143585;28;20241;-74
2022/11/01 04:30:31;;;;;;;5.85;4.20;;;19.40;99.90;;;;;;4147560;28;20323;-75
2022/11/01 04:32:33;;;;;;;5.70;4.47;;;19.30;99.90;;;;;;4144673;28;20213;-75
2022/11/01 04:34:44;;;;;;;4.38;3.97;;;19.30;99.90;;;;;;4144495;28;20287;-75
2022/11/01 04:36:47;;;;;;;5.20;4.43;;;19.30;99.90;;;;;;4144222;28;20748;-75
2022/11/01 04:38:50;;;;;;;5.13;4.18;;;19.40;99.90;;;;;;4146457;28;20213;-75
2022/11/01 04:40:53;;;;;;;5.65;4.18;;;19.30;99.90;;;;;;4144664;28;20669;-75
2022/11/01 04:42:56;;;;;;;5.25;3.78;;;19.30;99.90;;;;;;4143980;28;20255;-75
2022/11/01 04:45:00;;;;;;;5.95;4.20;;;19.30;99.90;;;;;;4144790;28;20275;-75
2022/11/01 04:47:02;;;;;;;5.13;3.83;;;19.30;99.90;;;;;;4144680;28;20657;-75
2022/11/01 04:49:04;;;;;;;5.93;4.15;;;19.30;99.90;;;;;;4139787;28;20564;-75
2022/11/01 04:51:07;;;;;;;4.85;4.07;;;19.30;99.90;;;;;;4147004;28;20294;-75
2022/11/01 04:53:10;;;;;;;5.15;4.13;;;19.30;99.90;;;;;;4147958;28;20225;-75
2022/11/01 04:55:12;;;;;;;5.03;4.20;;;19.30;99.90;;;;;;4148342;28;20229;-75
2022/11/01 04:57:23;;;;;;;5.57;3.83;;;19.30;99.90;;;;;;4147961;28;20275;-75
2022/11/01 04:59:25;;;;;;;6.13;4.13;;;19.30;99.90;;;;;;4147878;28;20221;-75
2022/11/01 05:01:27;;;;;;;4.30;3.72;;;19.30;99.90;;;;;;4147289;28;20213;-74
2022/11/01 05:03:29;;;;;;;4.90;3.60;;;19.30;99.90;;;;;;4143333;28;20217;-75
2022/11/01 05:05:32;;;;;;;5.85;3.70;;;19.30;99.90;;;;;;4138484;28;20245;-75
2022/11/01 05:07:35;;;;;;;5.22;3.92;;;19.30;99.90;;;;;;4145117;28;20221;-75
2022/11/01 05:09:37;;;;;;;5.68;3.83;;;19.20;99.90;;;;;;4147551;28;20278;-75
2022/11/01 05:11:39;;;;;;;4.68;3.95;;;19.30;99.90;;;;;;4143450;28;20275;-75
2022/11/01 05:13:43;;;;;;;6.07;3.70;;;19.30;99.90;;;;;;4148841;28;20649;-75
2022/11/01 05:15:45;;;;;;;5.18;4.03;;;19.30;99.90;;;;;;4147674;28;20232;-75
2022/11/01 05:17:48;;;;;;;7.13;4.20;;;19.30;99.90;;;;;;4147765;28;20264;-75
2022/11/01 05:19:50;;;;;;;5.10;3.38;;;19.20;99.90;;;;;;4147590;28;20217;-75
2022/11/01 05:21:53;;;;;;;5.50;3.65;;;19.30;99.90;;;;;;4147758;28;20267;-75
2022/11/01 05:23:55;;;;;;;4.65;3.95;;;19.20;99.90;;;;;;4146063;28;20654;-75
2022/11/01 05:25:57;;;;;;;4.57;3.15;;;19.20;99.90;;;;;;4147128;28;20221;-75
2022/11/01 05:28:00;;;;;;;6.00;3.67;;;19.20;99.90;;;;;;4144067;28;20213;-75
2022/11/01 05:30:05;;;;;;;3.83;3.15;;;19.20;99.90;;;;;;4136239;28;20233;-75
2022/11/01 05:32:08;;;;;;;4.22;3.40;;;19.20;99.90;;;;;;4146060;28;20217;-75
2022/11/01 05:34:10;;;;;;;3.75;2.97;;;19.20;99.90;;;;;;4147816;28;20287;-74
2022/11/01 05:36:12;;;;;;;4.60;3.42;;;19.20;99.90;;;;;;4146035;28;20221;-75
2022/11/01 05:38:15;;;;;;;5.80;3.75;;;19.20;99.90;;;;;;4147495;28;20622;-75
2022/11/01 05:40:17;;;;;;;4.32;3.25;;;19.20;99.90;;;;;;4147218;28;20267;-74
2022/11/01 05:42:19;;;;;;;3.70;3.30;;;19.20;99.90;;;;;;4147571;28;20225;-75
2022/11/01 05:44:22;;;;;;;4.57;3.30;;;19.20;99.90;;;;;;4147862;28;20217;-75
2022/11/01 05:46:25;;;;;;;7.47;3.53;;;19.10;99.90;;;;;;4147216;28;20636;-75
2022/11/01 05:48:27;;;;;;;6.22;3.05;;;19.20;99.90;;;;;;4142813;28;20225;-75
2022/11/01 05:50:30;;;;;;;3.63;3.28;;;19.10;99.90;;;;;;4145053;28;20221;-74
2022/11/01 05:52:32;;;;;;;4.80;3.22;;;19.10;99.90;;;;;;4147516;28;20221;-75
2022/11/01 05:54:34;;;;;;;4.93;3.20;;;19.10;99.90;;;;;;4147261;28;20267;-75
2022/11/01 05:56:37;;;;;;;5.80;3.67;;;19.20;99.90;;;;;;4146487;28;20244;-74
2022/11/01 05:58:39;;;;;;;4.82;3.05;;;19.10;99.90;;;;;;4146606;28;20266;-74
2022/11/01 06:00:41;;;;;;;6.55;3.50;;;19.10;99.90;;;;;;4147558;28;20298;-74
2022/11/01 06:02:45;;;;;;;3.40;2.90;;;19.10;99.90;;;;;;4147563;28;20282;-74
2022/11/01 06:04:47;;;;;;;4.63;3.17;;;19.10;99.90;;;;;;4146666;28;20283;-74
2022/11/01 06:06:49;;;;;;;4.97;3.20;;;19.10;99.90;;;;;;4148833;28;20275;-74
2022/11/01 06:08:52;;;;;;;4.90;3.28;;;19.10;99.90;;;;;;4147032;28;20217;-74
2022/11/01 06:11:01;;;;;;;4.43;3.17;;;19.10;99.90;;;;;;4146714;28;20283;-74
2022/11/01 06:13:03;;;;;;;4.57;3.03;;;19.20;99.90;;;;;;4145887;28;20216;-74
2022/11/01 06:15:06;;;;;;;5.18;2.83;;;19.10;99.90;;;;;;4147633;28;20217;-74
2022/11/01 06:17:12;;;;;;;4.90;3.13;;;19.10;99.90;;;;;;4146493;28;20224;-74
2022/11/01 06:19:15;;;;;;;6.32;3.42;;;19.10;99.90;;;;;;4143330;28;20259;-74
2022/11/01 06:21:20;;;;;;;5.75;3.17;;;19.10;99.90;;;;;;4147117;28;20232;-75
2022/11/01 06:23:23;;;;;;;4.03;2.85;;;19.10;99.90;;;;;;4145706;28;20233;-74
2022/11/01 06:25:26;;;;;;;4.63;3.08;;;19.10;99.90;;;;;;4145931;28;20221;-75
2022/11/01 06:27:29;;;;;;;5.13;3.05;;;19.10;99.90;;;;;;4146652;28;20229;-73
2022/11/01 06:29:31;;;;;;;4.90;3.05;;;19.10;99.90;;;;;;4146341;28;20249;-74
2022/11/01 06:31:33;;;;;;;6.15;3.00;;;19.10;99.90;;;;;;4152832;28;20220;-75
2022/11/01 06:33:35;;;;;;;6.50;3.20;;;19.10;99.90;;;;;;4146289;28;20267;-75
2022/11/01 06:35:39;;;;;;;4.15;2.67;;;19.10;99.90;;;;;;4144055;28;20224;-75
2022/11/01 06:37:41;;;;;;;4.25;3.20;;;19.10;99.90;;;;;;4145166;28;20275;-75
2022/11/01 06:39:44;;;;;;;6.13;2.97;;;19.10;99.90;;;;;;4147149;28;20217;-75
2022/11/01 06:41:46;;;;;;;5.18;2.80;;;19.10;99.90;;;;;;4146459;28;20217;-75
2022/11/01 06:43:48;;;;;;;3.25;2.55;;;19.10;99.90;;;;;;4146114;28;20221;-75
2022/11/01 06:45:51;;;;;;;3.95;2.83;;;19.10;99.90;;;;;;4148647;28;20217;-74
2022/11/01 06:47:53;;;;;;;4.20;3.03;;;19.00;99.90;;;;;;4152499;28;21659;-74
2022/11/01 06:49:55;;;;;;;6.65;3.17;;;19.00;99.90;;;;;;4145788;28;20688;-75
2022/11/01 06:51:59;;;;;;;3.35;2.58;;;19.10;99.90;;;;;;4145989;28;20268;-75
2022/11/01 06:54:01;;;;;;;5.22;2.78;;;19.10;99.90;;;;;;4146965;28;20221;-74
2022/11/01 06:56:04;;;;;;;4.72;2.83;;;19.10;99.90;;;;;;4145972;28;20229;-75
2022/11/01 06:58:06;;;;;;;4.78;2.60;;;19.10;99.90;;;;;;4146536;28;20233;-75
2022/11/01 07:00:10;;;;;;;5.43;3.15;;;19.10;99.90;;;;;;4147345;28;20216;-75
2022/11/01 07:02:12;;;;;;;5.03;2.88;;;19.10;99.90;;;;;;4145052;28;20245;-75
2022/11/01 07:04:15;;;;;;;4.18;3.03;;;19.10;99.90;;;;;;4146779;28;20270;-75
2022/11/01 07:06:17;;;;;;;6.05;3.08;;;19.00;99.90;;;;;;4144816;28;20275;-74
2022/11/01 07:08:21;;;;;;;3.75;2.75;;;19.00;99.90;;;;;;4146039;28;20665;-75
2022/11/01 07:10:23;;;;;;;4.40;2.88;;;19.00;99.90;;;;;;4145962;28;20655;-75
2022/11/01 07:12:26;;;;;;;4.90;2.65;;;19.00;99.90;;;;;;4148127;28;20220;-75
2022/11/01 07:14:29;;;;;;;5.25;3.00;;;19.00;99.90;;;;;;4147164;28;20646;-75
2022/11/01 07:16:32;;;;;;;6.95;3.05;;;19.00;99.90;;;;;;4146233;28;20229;-75
2022/11/01 07:18:34;;;;;;;6.22;2.72;;;19.00;99.90;;;;;;4133950;28;20271;-75
2022/11/01 07:20:40;;;;;;;4.50;3.22;;;19.00;99.90;;;;;;4138460;28;20817;-75
2022/11/01 07:22:43;;;;;;;5.03;2.80;;;19.00;99.90;;;;;;4145450;28;20225;-75
2022/11/01 07:24:46;;;;;;;5.32;2.47;;;19.00;99.90;;;;;;4145541;28;20267;-75
2022/11/01 07:26:49;;;;;;;3.70;2.63;;;19.00;99.90;;;;;;4145311;28;20240;-75
2022/11/01 07:28:51;;;;;;;5.47;2.88;;;19.00;99.90;;;;;;4145513;28;20663;-74
2022/11/01 07:30:54;;;;;;;3.45;2.40;;;19.00;99.90;;;;;;4146092;28;20319;-74
2022/11/01 07:32:58;;;;;;;4.07;2.40;;;19.00;99.90;;;;;;4145949;28;20227;-75
2022/11/01 07:35:01;;;;;;;4.35;2.67;;;19.00;99.90;;;;;;4145556;28;20217;-75
2022/11/01 07:37:03;;;;;;;5.70;2.55;;;19.00;99.90;;;;;;4139833;28;20658;-75
2022/11/01 07:39:06;;;;;;;3.83;2.40;;;19.00;99.90;;;;;;4144907;28;20229;-74
2022/11/01 07:41:09;;;;;;;5.18;2.45;;;19.00;99.90;;;;;;4145233;28;20271;-75
2022/11/01 07:43:12;;;;;;;3.38;2.30;;;19.00;99.90;;;;;;4145400;28;20320;-75
2022/11/01 07:45:14;;;;;;;4.03;2.65;;;19.00;99.90;;;;;;4145237;28;20283;-75
2022/11/01 07:47:16;;;;;;;4.13;2.38;;;19.00;99.90;;;;;;4146862;28;20221;-75
2022/11/01 07:49:19;;;;;;;6.05;2.50;;;19.00;99.90;;;;;;4143632;28;20225;-75
2022/11/01 07:51:21;;;;;;;5.40;2.67;;;19.00;99.90;;;;;;4145571;28;20236;-75
2022/11/01 07:53:24;;;;;;;4.72;2.75;;;19.00;99.90;;;;;;4145767;28;20279;-75
2022/11/01 07:55:26;;;;;;;6.32;2.95;;;19.00;99.90;;;;;;4144085;28;20302;-74
2022/11/01 07:57:30;;;;;;;5.88;2.58;;;19.00;99.90;;;;;;4146285;28;20224;-75
2022/11/01 07:59:32;;;;;;;5.07;2.72;;;19.00;99.90;;;;;;4147231;28;20224;-75
2022/11/01 08:01:35;;;;;;;7.10;2.80;;;19.00;99.90;;;;;;4145697;28;20617;-75
2022/11/01 08:03:37;;;;;;;4.55;2.65;;;19.00;99.90;;;;;;4147015;28;20735;-75
2022/11/01 08:05:40;;;;;;;6.75;2.88;;;19.00;99.90;;;;;;4144809;28;20221;-75
2022/11/01 08:07:43;;;;;;;4.38;2.30;;;19.00;99.90;;;;;;4144820;28;20295;-75
2022/11/01 08:09:46;;;;;;;4.78;2.30;;;19.00;99.90;;;;;;4144913;28;20626;-75
2022/11/01 08:11:48;;;;;;;5.15;2.30;;;19.00;99.90;;;;;;4144270;28;20224;-75
2022/11/01 08:13:52;;;;;;;5.22;2.30;;;19.00;99.90;;;;;;4149920;28;20217;-75
2022/11/01 08:15:55;;;;;;;5.88;2.28;;;18.90;99.90;;;;;;4144574;28;20221;-74
2022/11/01 08:17:57;;;;;;;5.90;2.30;;;18.90;99.90;;;;;;4139114;28;20271;-75
2022/11/01 08:20:00;;;;;;;6.25;2.33;;;18.90;99.90;;;;;;4139699;28;20507;-75
2022/11/01 08:22:02;;;;;;;4.85;2.35;;;18.90;99.90;;;;;;4141541;28;20624;-74
2022/11/01 08:24:05;;;;;;;6.68;2.33;;;18.90;99.90;;;;;;4144622;28;20715;-75
2022/11/01 08:26:07;;;;;;;6.43;2.38;;;18.90;99.90;;;;;;4145013;28;20271;-75
2022/11/01 08:28:11;;;;;;;7.13;2.65;;;19.00;99.90;;;;;;4143368;28;20221;-74
2022/11/01 08:30:16;;;;;;;4.20;2.10;;;19.00;99.90;;;;;;4144655;28;20264;-74
2022/11/01 08:32:21;;;;;;;6.78;2.70;;;19.00;99.90;;;;;;4145121;28;20221;-74
2022/11/01 08:34:23;;;;;;;6.95;2.13;;;19.00;99.90;;;;;;4142120;28;20221;-75
2022/11/01 08:36:25;;;;;;;6.93;2.80;;;19.00;99.90;;;;;;4142449;28;20244;-75
2022/11/01 08:38:28;;;;;;;6.40;2.65;;;19.00;99.90;;;;;;4141324;28;20217;-74
2022/11/01 08:40:31;;;;;;;4.80;2.20;;;19.10;99.90;;;;;;4144497;28;20205;-75
2022/11/01 08:42:33;;;;;;;7.72;2.45;;;19.10;99.90;;;;;;4147768;28;20216;-75
2022/11/01 08:44:36;;;;;;;6.93;2.03;;;19.10;99.90;;;;;;4141986;28;20269;-75
2022/11/01 08:46:41;;;;;;;6.40;1.98;;;19.10;99.90;;;;;;4141664;28;20240;-75
2022/11/01 08:48:44;;;;;;;3.88;2.10;;;19.10;99.90;;;;;;4139700;28;20267;-75
2022/11/01 08:50:46;;;;;;;6.57;2.17;;;19.10;99.90;;;;;;4144088;28;20236;-74
2022/11/01 08:52:48;;;;;;;6.32;2.00;;;19.10;99.90;;;;;;4143452;28;20263;-74
2022/11/01 08:54:50;;;;;;;4.53;2.25;;;19.10;99.90;;;;;;4143965;28;20209;-75
2022/11/01 08:56:58;;;;;;;6.60;1.90;;;19.10;99.90;;;;;;4143282;28;20279;-74
2022/11/01 08:59:00;;;;;;;4.88;2.35;;;19.10;99.90;;;;;;4146290;28;20275;-75
2022/11/01 09:01:03;;;;;;;6.20;2.05;;;19.10;99.90;;;;;;4142587;28;20654;-75
2022/11/01 09:03:06;;;;;;;4.40;2.10;;;19.10;99.90;;;;;;4140189;28;20748;-74
2022/11/01 09:05:09;;;;;;;6.90;2.00;;;19.20;99.90;;;;;;4144084;28;20229;-75
2022/11/01 09:07:11;;;;;;;8.38;2.55;;;19.20;99.90;;;;;;4142689;28;20217;-75
2022/11/01 09:09:14;;;;;;;6.40;2.30;;;19.10;99.90;;;;;;4139042;28;20286;-74
2022/11/01 09:11:16;;;;;;;3.80;2.00;;;19.20;99.90;;;;;;4142947;28;20667;-74
2022/11/01 09:13:19;;;;;;;4.72;2.08;;;19.10;99.90;;;;;;4143845;28;20263;-75
2022/11/01 09:15:21;;;;;;;5.35;2.13;;;19.10;99.90;;;;;;4143297;28;20259;-75
2022/11/01 09:17:23;;;;;;;6.45;2.38;;;19.10;99.90;;;;;;4141257;28;20248;-74
2022/11/01 09:19:27;;;;;;;3.72;2.08;;;19.10;99.90;;;;;;4144185;28;20225;-74
2022/11/01 09:21:29;;;;;;;4.30;2.00;;;19.20;99.90;;;;;;4137344;28;20217;-74
2022/11/01 09:23:32;;;;;;;6.72;2.38;;;19.20;99.90;;;;;;4137290;28;20279;-74
2022/11/01 09:25:34;;;;;;;7.55;2.40;;;19.10;99.90;;;;;;4135712;28;20252;-75
2022/11/01 09:27:36;;;;;;;3.58;1.95;;;19.20;99.90;;;;;;4143766;28;20218;-75
2022/11/01 09:29:39;;;;;;;5.57;2.28;;;19.20;99.90;;;;;;4146956;28;20221;-75
2022/11/01 09:31:41;;;;;;;6.35;2.30;;;19.20;99.90;;;;;;4142630;28;20798;-74
2022/11/01 09:33:43;;;;;;;6.45;2.40;;;19.20;99.90;;;;;;4139298;28;20220;-75
2022/11/01 09:35:51;;;;;;;5.88;2.10;;;19.20;99.90;;;;;;4143919;28;20221;-74
2022/11/01 09:37:58;;;;;;;6.43;2.20;;;19.20;99.90;;;;;;4144931;28;20631;-74
2022/11/01 09:40:00;;;;;;;6.20;2.33;;;19.20;99.90;;;;;;4147879;28;20233;-74
2022/11/01 09:42:05;;;;;;;6.53;2.22;;;19.20;99.90;;;;;;4144455;28;20220;-74
2022/11/01 09:44:13;;;;;;;4.20;1.92;;;19.20;99.90;;;;;;4136887;28;20272;-74
2022/11/01 09:46:20;;;;;;;5.78;2.15;;;19.20;99.90;;;;;;4138545;28;20241;-74
2022/11/01 09:48:24;;;;;;;7.43;2.20;;;19.20;99.90;;;;;;4140635;28;20612;-74
2022/11/01 09:50:29;;;;;;;7.28;1.95;;;19.20;99.90;;;;;;4142921;28;20732;-75
2022/11/01 09:52:32;;;;;;;6.82;2.08;;;19.20;99.90;;;;;;4145488;28;20385;-74
2022/11/01 09:54:35;;;;;;;5.05;2.13;;;19.30;99.90;;;;;;4147121;28;20225;-74
2022/11/01 09:56:41;;;;;;;6.55;2.13;;;19.20;99.90;;;;;;4145470;28;20217;-74
2022/11/01 09:58:55;;;;;;;5.85;2.03;;;19.20;99.90;;;;;;4140916;28;20578;-75
2022/11/01 10:01:09;;;;;;;5.85;1.98;;;19.20;99.90;;;;;;4145917;28;20628;-75
2022/11/01 10:03:32;;;;;;;5.95;2.20;;;19.20;99.90;;;;;;4140422;28;20244;-75
2022/11/01 10:05:50;;;;;;;5.22;2.22;;;19.20;99.90;;;;;;4148012;28;20279;-75
2022/11/01 10:08:00;;;;;;;7.55;2.22;;;19.20;99.90;;;;;;4144664;28;20614;-75
2022/11/01 10:10:16;;;;;;;3.45;1.95;;;19.30;99.90;;;;;;4146436;28;20212;-74
2022/11/01 10:12:36;;;;;;;8.48;2.80;;;19.20;99.90;;;;;;4147280;28;20299;-75
2022/11/01 10:14:50;;;;;;;4.13;1.98;;;19.20;99.90;;;;;;4143413;28;20566;-75
2022/11/01 10:17:00;;;;;;;6.53;2.17;;;19.30;99.90;;;;;;4141822;28;20217;-74
2022/11/01 10:19:05;;;;;;;5.18;1.90;;;19.30;99.90;;;;;;4142216;28;20216;-75
2022/11/01 10:21:13;;;;;;;5.32;2.08;;;19.30;99.90;;;;;;4142977;28;20275;-74
2022/11/01 10:23:18;;;;;;;3.90;1.50;;;19.30;99.90;;;;;;4143916;28;20684;-74
2022/11/01 10:25:23;;;;;;;6.05;2.33;;;19.30;99.90;;;;;;4151481;28;20218;-75
2022/11/01 10:27:32;;;;;;;4.88;2.03;;;19.30;99.90;;;;;;4144299;28;20221;-75
2022/11/01 10:29:43;;;;;;;6.80;2.25;;;19.30;99.90;;;;;;4141072;28;20224;-75
2022/11/01 10:31:49;;;;;;;4.25;2.17;;;19.30;99.90;;;;;;4147929;28;20240;-75
2022/11/01 10:33:57;;;;;;;3.67;1.80;;;19.30;99.90;;;;;;4142122;28;20685;-75
2022/11/01 10:36:02;;;;;;;4.22;1.80;;;19.30;99.90;;;;;;4144463;28;20209;-75
2022/11/01 10:38:11;;;;;;;5.43;2.13;;;19.30;99.90;;;;;;4132350;28;20723;-75
2022/11/01 10:40:20;;;;;;;7.93;2.08;;;19.30;99.90;;;;;;4136679;28;24468;-74
2022/11/01 10:42:22;;;;;;;3.00;1.85;;;19.30;99.90;;;;;;4142048;28;20221;-74
2022/11/01 10:44:28;;;;;;;4.78;2.20;;;19.30;99.90;;;;;;4141749;28;20268;-74
2022/11/01 10:46:34;;;;;;;5.20;2.13;;;19.30;99.90;;;;;;4138623;28;20217;-75
2022/11/01 10:48:43;;;;;;;6.07;2.15;;;19.30;99.90;;;;;;4141969;28;20221;-74
2022/11/01 10:50:45;;;;;;;3.83;1.80;;;19.30;99.90;;;;;;4144774;28;20217;-74
2022/11/01 10:52:51;;;;;;;5.85;2.35;;;19.30;99.90;;;;;;4144426;28;20937;-74
2022/11/01 10:54:56;;;;;;;5.05;2.08;;;19.30;99.90;;;;;;4142699;28;20975;-74
2022/11/01 10:57:03;;;;;;;6.40;2.05;;;19.30;99.90;;;;;;4145028;28;20304;-74
2022/11/01 10:59:10;;;;;;;3.58;1.75;;;19.30;99.90;;;;;;4147390;28;20318;-75